Time;durP1;ratioP1;P1;durP2;ratioP2;P2;SDS_P1;SDS_P2;PMS_P1;PMS_P2;Temp;Humidity;BMP_temperature;BMP_pressure;BME280_temperature;BME280_humidity;BME280_pressure;Samples;Min_cycle;Max_cycle;Signal;HPM_P1;HPM_P2
2021/12/31 00:00:58;;;;;;;17.80;16.87;;;14.20;84.90;;;;;;5032561;28;20452;-73
2021/12/31 00:03:29;;;;;;;18.13;17.17;;;14.10;84.80;;;;;;5032383;28;20506;-73
2021/12/31 00:05:56;;;;;;;19.80;18.80;;;14.20;84.40;;;;;;5032311;28;20956;-74
2021/12/31 00:08:23;;;;;;;19.37;18.27;;;14.20;83.90;;;;;;5032206;28;20456;-74
2021/12/31 00:10:59;;;;;;;18.60;17.60;;;14.20;84.00;;;;;;5032259;28;20458;-73
2021/12/31 00:13:26;;;;;;;17.80;17.00;;;14.20;84.00;;;;;;5032471;28;20529;-73
2021/12/31 00:15:53;;;;;;;18.67;17.63;;;14.10;83.90;;;;;;5032111;28;20570;-74
2021/12/31 00:18:20;;;;;;;18.20;17.40;;;14.20;84.00;;;;;;5032180;28;21004;-73
2021/12/31 00:20:48;;;;;;;18.20;17.30;;;14.10;83.90;;;;;;5032144;28;20455;-73
2021/12/31 00:23:20;;;;;;;18.97;17.87;;;14.20;83.70;;;;;;5032194;28;20510;-73
2021/12/31 00:25:47;;;;;;;18.60;17.60;;;14.30;83.10;;;;;;5032346;28;20487;-73
2021/12/31 00:28:14;;;;;;;18.37;17.47;;;14.20;83.30;;;;;;5032120;28;20809;-74
2021/12/31 00:30:41;;;;;;;18.50;17.30;;;14.20;83.30;;;;;;5035717;28;20969;-73
2021/12/31 00:33:13;;;;;;;17.90;17.00;;;14.20;83.30;;;;;;5036096;28;20455;-73
2021/12/31 00:35:40;;;;;;;18.07;17.17;;;14.10;83.50;;;;;;5036024;28;20805;-74
2021/12/31 00:38:08;;;;;;;18.00;17.10;;;14.10;83.70;;;;;;5035750;28;20562;-73
2021/12/31 00:40:36;;;;;;;17.70;16.90;;;14.10;84.10;;;;;;5035744;28;20482;-73
2021/12/31 00:43:06;;;;;;;18.53;17.63;;;14.10;84.10;;;;;;5035762;28;20518;-74
2021/12/31 00:45:36;;;;;;;17.80;16.93;;;14.00;84.30;;;;;;5035809;28;20454;-73
2021/12/31 00:48:04;;;;;;;18.27;17.37;;;14.00;84.60;;;;;;5035905;28;20995;-73
2021/12/31 00:50:31;;;;;;;17.90;17.00;;;13.90;84.80;;;;;;5035475;28;20476;-73
2021/12/31 00:52:57;;;;;;;17.90;16.90;;;14.00;84.90;;;;;;5035886;28;20462;-74
2021/12/31 00:55:27;;;;;;;17.80;17.00;;;14.00;84.90;;;;;;5035713;28;20447;-74
2021/12/31 00:57:54;;;;;;;18.10;17.20;;;13.90;85.10;;;;;;5035759;28;20829;-73
2021/12/31 01:00:21;;;;;;;18.53;17.60;;;13.90;85.20;;;;;;5035310;28;20571;-73
2021/12/31 01:02:51;;;;;;;18.47;17.53;;;13.90;85.40;;;;;;5035749;28;20471;-73
2021/12/31 01:05:18;;;;;;;18.30;17.30;;;13.80;85.80;;;;;;5035609;28;20456;-73
2021/12/31 01:07:46;;;;;;;18.10;17.20;;;13.70;86.10;;;;;;5035508;28;20452;-73
2021/12/31 01:10:15;;;;;;;18.00;17.00;;;13.60;86.40;;;;;;5035224;28;20475;-73
2021/12/31 01:12:44;;;;;;;17.47;16.67;;;13.60;86.50;;;;;;5035452;28;20458;-73
2021/12/31 01:15:19;;;;;;;18.10;17.10;;;13.60;86.40;;;;;;5035347;28;20507;-73
2021/12/31 01:18:04;;;;;;;17.60;16.70;;;13.60;86.40;;;;;;5035272;28;20474;-73
2021/12/31 01:20:31;;;;;;;17.30;16.50;;;13.60;86.40;;;;;;5034889;28;21050;-73
2021/12/31 01:22:58;;;;;;;18.00;16.93;;;13.60;86.30;;;;;;5035350;28;20452;-73
2021/12/31 01:25:25;;;;;;;17.60;16.63;;;13.60;86.70;;;;;;5035217;28;20448;-73
2021/12/31 01:27:53;;;;;;;17.57;16.67;;;13.50;86.70;;;;;;5035078;28;20451;-73
2021/12/31 01:30:21;;;;;;;17.70;16.50;;;13.50;86.80;;;;;;5034840;28;20474;-73
2021/12/31 01:32:51;;;;;;;17.30;16.50;;;13.50;87.00;;;;;;5034879;28;21139;-73
2021/12/31 01:35:18;;;;;;;17.47;16.57;;;13.40;87.10;;;;;;5035015;28;20514;-73
2021/12/31 01:37:45;;;;;;;17.80;16.90;;;13.40;87.30;;;;;;5034803;28;20537;-73
2021/12/31 01:40:13;;;;;;;18.03;17.13;;;13.40;87.10;;;;;;5033978;28;20505;-73
2021/12/31 01:42:43;;;;;;;18.40;17.40;;;13.30;87.20;;;;;;5034705;28;20547;-73
2021/12/31 01:45:16;;;;;;;18.13;17.23;;;13.20;87.40;;;;;;5034829;28;20539;-73
2021/12/31 01:47:57;;;;;;;17.70;16.80;;;13.10;87.70;;;;;;5034628;28;20509;-73
2021/12/31 01:50:25;;;;;;;17.40;16.50;;;13.00;88.00;;;;;;5034554;28;20475;-73
2021/12/31 01:52:52;;;;;;;17.23;16.43;;;13.00;87.70;;;;;;5034645;28;20570;-73
2021/12/31 01:55:21;;;;;;;17.40;16.60;;;13.00;87.90;;;;;;5034661;28;20456;-73
2021/12/31 01:57:48;;;;;;;17.47;16.67;;;13.00;87.90;;;;;;5034418;28;20486;-73
2021/12/31 02:00:16;;;;;;;18.00;17.10;;;12.90;88.00;;;;;;5034352;28;20480;-73
2021/12/31 02:02:45;;;;;;;17.97;17.03;;;12.80;88.00;;;;;;5034430;28;20455;-73
2021/12/31 02:05:13;;;;;;;17.57;16.67;;;12.90;87.90;;;;;;5034387;28;20542;-73
2021/12/31 02:07:40;;;;;;;17.60;16.50;;;12.80;87.60;;;;;;5034465;28;20448;-73
2021/12/31 02:10:09;;;;;;;17.40;16.60;;;12.70;87.90;;;;;;5034069;28;21018;-73
2021/12/31 02:12:39;;;;;;;17.03;16.20;;;12.60;88.20;;;;;;5034232;28;20454;-73
2021/12/31 02:15:06;;;;;;;17.10;16.20;;;12.50;88.40;;;;;;5034188;28;20448;-73
2021/12/31 02:17:35;;;;;;;17.70;16.50;;;12.50;88.40;;;;;;5034078;28;20474;-73
2021/12/31 02:20:06;;;;;;;17.63;16.63;;;12.40;88.50;;;;;;5033977;28;20474;-73
2021/12/31 02:22:37;;;;;;;17.20;16.40;;;12.40;88.70;;;;;;5034343;28;20480;-73
2021/12/31 02:25:05;;;;;;;17.47;16.63;;;12.30;88.90;;;;;;5033998;28;20833;-73
2021/12/31 02:27:36;;;;;;;16.90;16.10;;;12.30;89.00;;;;;;5033841;28;20462;-73
2021/12/31 02:30:03;;;;;;;17.40;16.50;;;12.20;89.10;;;;;;5033750;28;20482;-73
2021/12/31 02:32:30;;;;;;;16.80;16.00;;;12.20;89.30;;;;;;5034018;28;20820;-73
2021/12/31 02:34:57;;;;;;;17.60;16.50;;;12.10;89.50;;;;;;5033766;28;20536;-73
2021/12/31 02:37:25;;;;;;;17.07;16.03;;;12.10;89.50;;;;;;5033656;28;20539;-73
2021/12/31 02:39:54;;;;;;;16.80;15.90;;;12.00;89.40;;;;;;5033444;28;20558;-73
2021/12/31 02:42:21;;;;;;;16.47;15.67;;;11.90;90.00;;;;;;5033743;28;20542;-73
2021/12/31 02:44:50;;;;;;;16.77;15.87;;;11.80;90.20;;;;;;5033686;28;20539;-73
2021/12/31 02:47:16;;;;;;;17.23;16.33;;;11.80;90.30;;;;;;5033321;28;20550;-73
2021/12/31 02:49:46;;;;;;;17.20;16.30;;;11.70;90.40;;;;;;5033288;28;20476;-74
2021/12/31 02:52:15;;;;;;;17.40;16.30;;;11.60;90.60;;;;;;5033587;28;20528;-74
2021/12/31 02:54:46;;;;;;;17.17;16.37;;;11.50;90.80;;;;;;5033472;28;20458;-73
2021/12/31 02:57:14;;;;;;;16.73;15.73;;;11.50;91.00;;;;;;5033417;28;20452;-73
2021/12/31 02:59:41;;;;;;;16.67;15.90;;;11.40;91.40;;;;;;5033031;28;21007;-73
2021/12/31 03:02:09;;;;;;;16.67;15.77;;;11.30;91.60;;;;;;5033390;28;20547;-73
2021/12/31 03:04:38;;;;;;;16.43;15.63;;;11.20;91.90;;;;;;5033246;28;20541;-73
2021/12/31 03:07:07;;;;;;;17.30;16.40;;;11.20;92.10;;;;;;5033319;28;20937;-73
2021/12/31 03:09:36;;;;;;;16.23;15.33;;;11.10;92.30;;;;;;5033006;28;20559;-73
2021/12/31 03:12:07;;;;;;;17.07;16.10;;;11.00;92.40;;;;;;5033188;28;20453;-73
2021/12/31 03:14:35;;;;;;;17.10;16.20;;;11.00;92.40;;;;;;5033096;28;20967;-73
2021/12/31 03:17:02;;;;;;;16.63;15.80;;;11.00;92.50;;;;;;5033091;28;20456;-73
2021/12/31 03:19:29;;;;;;;16.97;16.07;;;10.90;92.50;;;;;;5032722;28;20491;-73
2021/12/31 03:21:56;;;;;;;16.93;16.03;;;10.90;92.70;;;;;;5033389;28;20457;-73
2021/12/31 03:24:23;;;;;;;18.07;17.17;;;10.80;92.70;;;;;;5033106;28;20448;-73
2021/12/31 03:26:50;;;;;;;16.90;15.90;;;10.80;92.80;;;;;;5032911;28;20460;-73
2021/12/31 03:29:18;;;;;;;17.10;16.13;;;10.80;92.90;;;;;;5032572;28;20482;-73
2021/12/31 03:31:45;;;;;;;16.70;15.90;;;10.70;93.10;;;;;;5032804;28;20448;-73
2021/12/31 03:34:14;;;;;;;17.67;16.23;;;10.70;93.00;;;;;;5032876;28;20546;-73
2021/12/31 03:36:41;;;;;;;17.10;16.20;;;10.60;93.20;;;;;;5032663;28;20521;-73
2021/12/31 03:39:09;;;;;;;18.03;17.13;;;10.60;93.20;;;;;;5032658;28;20521;-73
2021/12/31 03:41:37;;;;;;;17.60;16.60;;;10.60;93.40;;;;;;5032801;28;21020;-73
2021/12/31 03:44:04;;;;;;;16.93;16.13;;;10.50;93.40;;;;;;5032409;28;20551;-73
2021/12/31 03:46:33;;;;;;;16.63;15.73;;;10.50;93.40;;;;;;5032666;28;20481;-73
2021/12/31 03:49:00;;;;;;;16.40;15.60;;;10.50;93.50;;;;;;5032492;28;20468;-73
2021/12/31 03:51:27;;;;;;;17.43;16.40;;;10.50;93.20;;;;;;5032458;28;20941;-73
2021/12/31 03:53:54;;;;;;;16.60;15.80;;;10.50;93.10;;;;;;5032610;28;20457;-73
2021/12/31 03:56:22;;;;;;;16.97;16.13;;;10.40;93.20;;;;;;5032745;28;20454;-73
2021/12/31 03:58:49;;;;;;;17.23;16.20;;;10.40;93.20;;;;;;5032056;28;20853;-73
2021/12/31 04:01:16;;;;;;;16.70;15.70;;;10.30;93.40;;;;;;5032352;28;20451;-73
2021/12/31 04:03:44;;;;;;;16.20;15.40;;;10.30;93.60;;;;;;5034103;28;20462;-73
2021/12/31 04:06:11;;;;;;;17.63;16.63;;;10.30;93.50;;;;;;5039033;28;20458;-73
2021/12/31 04:08:38;;;;;;;16.87;16.07;;;10.20;93.90;;;;;;5038952;28;21131;-73
2021/12/31 04:11:05;;;;;;;17.40;16.50;;;10.20;93.90;;;;;;5038866;28;20534;-73
2021/12/31 04:13:32;;;;;;;17.10;16.30;;;10.20;93.80;;;;;;5038880;28;20562;-73
2021/12/31 04:15:59;;;;;;;17.17;16.27;;;10.20;93.90;;;;;;5038857;28;20483;-73
2021/12/31 04:18:26;;;;;;;17.30;16.40;;;10.20;93.90;;;;;;5038901;28;20548;-73
2021/12/31 04:20:56;;;;;;;18.10;16.90;;;10.10;94.10;;;;;;5038780;28;20458;-73
2021/12/31 04:23:28;;;;;;;16.47;15.63;;;10.10;94.50;;;;;;5038912;28;20999;-73
2021/12/31 04:25:56;;;;;;;17.13;16.23;;;10.00;94.70;;;;;;5038932;28;20451;-73
2021/12/31 04:28:23;;;;;;;18.00;16.70;;;10.10;94.70;;;;;;5038850;28;20546;-73
2021/12/31 04:30:50;;;;;;;18.90;18.00;;;10.10;94.70;;;;;;5038814;28;20455;-73
2021/12/31 04:33:17;;;;;;;19.20;18.20;;;10.00;94.70;;;;;;5038952;28;20447;-73
2021/12/31 04:35:44;;;;;;;19.60;18.27;;;10.10;94.80;;;;;;5038831;28;20456;-73
2021/12/31 04:38:13;;;;;;;17.80;16.87;;;10.00;94.60;;;;;;5038580;28;20550;-73
2021/12/31 04:40:40;;;;;;;17.53;16.70;;;10.00;94.50;;;;;;5038518;28;20475;-73
2021/12/31 04:43:07;;;;;;;16.93;16.13;;;10.00;94.40;;;;;;5038773;28;20992;-73
2021/12/31 04:45:34;;;;;;;17.53;16.50;;;10.00;94.50;;;;;;5038781;28;20447;-73
2021/12/31 04:48:04;;;;;;;17.80;16.90;;;10.00;94.60;;;;;;5038545;28;20454;-73
2021/12/31 04:50:31;;;;;;;17.00;16.00;;;10.00;94.60;;;;;;5038763;28;20818;-73
2021/12/31 04:52:58;;;;;;;17.57;16.30;;;10.00;94.60;;;;;;5038639;28;20828;-73
2021/12/31 04:55:26;;;;;;;15.77;15.07;;;10.00;94.40;;;;;;5038682;28;20526;-73
2021/12/31 04:57:53;;;;;;;16.17;15.37;;;9.90;94.40;;;;;;5038513;28;20521;-73
2021/12/31 05:00:20;;;;;;;17.43;16.53;;;10.00;94.40;;;;;;5038207;28;20507;-73
2021/12/31 05:02:47;;;;;;;17.43;16.57;;;9.90;94.40;;;;;;5038664;28;20457;-73
2021/12/31 05:05:14;;;;;;;17.57;16.67;;;9.90;94.50;;;;;;5038468;28;20539;-73
2021/12/31 05:07:41;;;;;;;17.43;16.63;;;9.90;94.60;;;;;;5038444;28;20452;-73
2021/12/31 05:10:09;;;;;;;16.93;16.03;;;9.90;94.80;;;;;;5038249;28;20475;-73
2021/12/31 05:12:38;;;;;;;17.73;16.63;;;9.80;95.00;;;;;;5038604;28;20452;-73
2021/12/31 05:15:08;;;;;;;17.30;16.20;;;9.80;95.20;;;;;;5036931;28;20455;-73
2021/12/31 05:17:35;;;;;;;18.60;17.70;;;9.80;95.00;;;;;;5035004;28;20448;-73
2021/12/31 05:20:02;;;;;;;17.00;16.10;;;9.80;95.00;;;;;;5034956;28;20480;-73
2021/12/31 05:22:29;;;;;;;16.63;15.83;;;9.80;95.00;;;;;;5035260;28;20454;-73
2021/12/31 05:24:56;;;;;;;17.20;16.40;;;9.80;95.20;;;;;;5035146;28;20455;-73
2021/12/31 05:27:23;;;;;;;17.83;16.50;;;9.80;95.20;;;;;;5035241;28;20933;-73
2021/12/31 05:29:51;;;;;;;17.03;16.17;;;9.80;95.20;;;;;;5034958;28;20560;-73
2021/12/31 05:32:18;;;;;;;17.20;16.30;;;9.80;95.10;;;;;;5035313;28;20456;-73
2021/12/31 05:34:45;;;;;;;17.17;16.17;;;9.70;95.20;;;;;;5035259;28;20463;-73
2021/12/31 05:37:12;;;;;;;18.63;17.70;;;9.70;95.30;;;;;;5034962;28;20466;-73
2021/12/31 05:39:39;;;;;;;17.80;16.90;;;9.70;95.40;;;;;;5034580;28;20484;-73
2021/12/31 05:42:06;;;;;;;17.60;16.70;;;9.70;95.40;;;;;;5034699;28;20452;-73
2021/12/31 05:44:33;;;;;;;17.17;16.37;;;9.70;95.70;;;;;;5034788;28;20458;-73
2021/12/31 05:47:01;;;;;;;18.40;17.40;;;9.70;95.60;;;;;;5034862;28;20897;-73
2021/12/31 05:49:28;;;;;;;17.67;16.77;;;9.80;95.40;;;;;;5034433;28;20475;-73
2021/12/31 05:51:55;;;;;;;16.63;15.77;;;9.80;94.70;;;;;;5034675;28;20462;-73
2021/12/31 05:54:22;;;;;;;17.10;16.30;;;9.70;94.20;;;;;;5034629;28;20456;-73
2021/12/31 05:56:49;;;;;;;17.83;16.87;;;9.80;94.10;;;;;;5034692;28;20456;-73
2021/12/31 05:59:16;;;;;;;17.40;16.40;;;9.70;93.90;;;;;;5034282;28;20587;-73
2021/12/31 06:01:43;;;;;;;18.47;17.50;;;9.60;94.30;;;;;;5034671;28;20459;-73
2021/12/31 06:04:11;;;;;;;17.67;16.57;;;9.50;94.70;;;;;;5034501;28;20462;-73
2021/12/31 06:06:38;;;;;;;17.63;16.73;;;9.40;94.90;;;;;;5034524;28;20467;-73
2021/12/31 06:09:07;;;;;;;16.80;15.93;;;9.40;95.20;;;;;;5034365;28;20478;-73
2021/12/31 06:11:34;;;;;;;18.70;17.50;;;9.40;95.20;;;;;;5034628;28;20452;-73
2021/12/31 06:14:04;;;;;;;18.00;17.10;;;9.40;95.30;;;;;;5034291;28;20474;-73
2021/12/31 06:16:37;;;;;;;19.53;18.63;;;9.40;95.30;;;;;;5034189;28;20455;-73
2021/12/31 06:19:04;;;;;;;17.83;16.70;;;9.40;95.20;;;;;;5034045;28;20480;-73
2021/12/31 06:21:33;;;;;;;16.40;15.30;;;9.40;95.30;;;;;;5034156;28;20530;-73
2021/12/31 06:24:01;;;;;;;19.37;18.37;;;9.40;95.50;;;;;;5034197;28;20460;-73
2021/12/31 06:26:28;;;;;;;17.70;16.80;;;9.40;95.50;;;;;;5033663;28;20534;-72
2021/12/31 06:28:55;;;;;;;18.90;17.83;;;9.40;95.60;;;;;;5033788;28;21027;-73
2021/12/31 06:31:22;;;;;;;17.17;16.17;;;9.40;95.40;;;;;;5033908;28;20452;-73
2021/12/31 06:33:49;;;;;;;18.37;17.27;;;9.40;95.30;;;;;;5033961;28;20455;-73
2021/12/31 06:36:16;;;;;;;17.33;16.53;;;9.40;95.10;;;;;;5033677;28;20454;-73
2021/12/31 06:38:44;;;;;;;17.40;16.50;;;9.40;95.00;;;;;;5033577;28;20476;-73
2021/12/31 06:41:11;;;;;;;17.87;16.90;;;9.40;94.90;;;;;;5033654;28;20459;-73
2021/12/31 06:43:38;;;;;;;17.97;16.57;;;9.40;94.80;;;;;;5033360;28;20803;-73
2021/12/31 06:46:09;;;;;;;18.73;17.50;;;9.30;95.20;;;;;;5033664;28;20542;-73
2021/12/31 06:48:36;;;;;;;16.97;16.00;;;9.20;95.40;;;;;;5033419;28;20451;-73
2021/12/31 06:51:02;;;;;;;16.90;15.90;;;9.20;95.60;;;;;;5033476;28;20452;-73
2021/12/31 06:53:29;;;;;;;18.77;17.67;;;9.20;95.90;;;;;;5033511;28;20967;-73
2021/12/31 06:55:58;;;;;;;17.90;16.90;;;9.10;95.90;;;;;;5033527;28;20802;-73
2021/12/31 06:58:24;;;;;;;17.40;16.50;;;9.10;96.10;;;;;;5033392;28;20886;-73
2021/12/31 07:00:51;;;;;;;18.70;17.70;;;9.10;96.30;;;;;;5033295;28;20482;-73
2021/12/31 07:03:18;;;;;;;16.70;15.80;;;9.20;96.20;;;;;;5033286;28;20817;-73
2021/12/31 07:05:45;;;;;;;17.20;16.30;;;9.20;95.90;;;;;;5033420;28;20535;-73
2021/12/31 07:08:13;;;;;;;19.90;18.60;;;9.20;95.80;;;;;;5033235;28;20864;-73
2021/12/31 07:10:40;;;;;;;18.30;17.40;;;9.20;95.90;;;;;;5033144;28;20476;-73
2021/12/31 07:13:11;;;;;;;17.43;16.53;;;9.10;96.00;;;;;;5033301;28;20845;-73
2021/12/31 07:15:40;;;;;;;19.57;18.53;;;9.20;96.10;;;;;;5033242;28;20547;-73
2021/12/31 07:18:07;;;;;;;17.67;16.67;;;9.20;96.10;;;;;;5033151;28;20448;-73
2021/12/31 07:20:34;;;;;;;17.30;16.50;;;9.20;96.30;;;;;;5032833;28;20492;-73
2021/12/31 07:23:04;;;;;;;16.80;16.00;;;9.20;96.30;;;;;;5033064;28;20448;-73
2021/12/31 07:25:33;;;;;;;18.80;17.67;;;9.30;96.50;;;;;;5033216;28;20460;-72
2021/12/31 07:27:59;;;;;;;17.47;16.50;;;9.30;96.50;;;;;;5033023;28;20452;-72
2021/12/31 07:30:28;;;;;;;17.63;16.63;;;9.30;96.50;;;;;;5032793;28;21031;-73
2021/12/31 07:32:55;;;;;;;18.07;17.00;;;9.30;96.50;;;;;;5033080;28;20455;-72
2021/12/31 07:35:23;;;;;;;17.10;16.10;;;9.40;96.70;;;;;;5032884;28;20503;-73
2021/12/31 07:37:52;;;;;;;16.50;15.60;;;9.40;96.70;;;;;;5032709;28;20456;-72
2021/12/31 07:40:25;;;;;;;17.13;16.10;;;9.50;96.60;;;;;;5032208;28;20495;-73
2021/12/31 07:42:52;;;;;;;18.80;17.77;;;9.50;96.70;;;;;;5032830;28;20487;-73
2021/12/31 07:45:19;;;;;;;17.10;16.20;;;9.60;96.40;;;;;;5032854;28;20543;-73
2021/12/31 07:47:47;;;;;;;16.87;16.00;;;9.60;96.20;;;;;;5032606;28;20456;-73
2021/12/31 07:50:15;;;;;;;17.77;16.87;;;9.60;96.00;;;;;;5032453;28;20480;-73
2021/12/31 07:52:42;;;;;;;17.20;16.23;;;9.70;95.80;;;;;;5032795;28;20865;-73
2021/12/31 07:55:09;;;;;;;17.30;16.30;;;9.70;95.80;;;;;;5032752;28;20821;-73
2021/12/31 07:57:36;;;;;;;18.20;17.00;;;9.70;95.50;;;;;;5032627;28;20448;-73
2021/12/31 08:00:05;;;;;;;18.00;17.10;;;9.60;95.50;;;;;;5032403;28;20476;-73
2021/12/31 08:02:32;;;;;;;18.27;17.27;;;9.60;95.60;;;;;;5032537;28;20801;-73
2021/12/31 08:05:00;;;;;;;17.60;16.70;;;9.70;95.60;;;;;;5032505;28;20459;-73
2021/12/31 08:07:28;;;;;;;16.47;15.57;;;9.70;95.60;;;;;;5032618;28;20459;-73
2021/12/31 08:09:55;;;;;;;17.00;16.07;;;9.70;95.60;;;;;;5032473;28;20467;-73
2021/12/31 08:12:22;;;;;;;17.77;16.87;;;9.70;95.60;;;;;;5032590;28;21020;-73
2021/12/31 08:14:49;;;;;;;18.10;17.17;;;9.70;95.30;;;;;;5032525;28;20491;-73
2021/12/31 08:17:16;;;;;;;19.17;18.17;;;9.70;95.10;;;;;;5032393;28;20821;-73
2021/12/31 08:19:43;;;;;;;17.80;16.70;;;9.70;94.80;;;;;;5032130;28;20487;-73
2021/12/31 08:22:11;;;;;;;18.83;17.83;;;9.80;94.50;;;;;;5032647;28;20455;-73
2021/12/31 08:24:38;;;;;;;19.23;18.13;;;9.70;93.60;;;;;;5032585;28;20462;-73
2021/12/31 08:27:05;;;;;;;18.73;17.73;;;9.70;93.50;;;;;;5032588;28;20955;-73
2021/12/31 08:29:32;;;;;;;17.13;16.23;;;9.60;93.80;;;;;;5032203;28;20486;-73
2021/12/31 08:31:59;;;;;;;19.90;18.80;;;9.60;94.20;;;;;;5032441;28;20452;-74
2021/12/31 08:34:26;;;;;;;17.87;16.87;;;9.60;94.50;;;;;;5032432;28;20458;-73
2021/12/31 08:36:52;;;;;;;19.83;18.53;;;9.70;94.40;;;;;;5032220;28;20463;-74
2021/12/31 08:39:21;;;;;;;17.53;16.50;;;9.70;94.30;;;;;;5032043;28;20474;-74
2021/12/31 08:41:48;;;;;;;20.70;19.30;;;9.80;94.50;;;;;;5032339;28;20555;-74
2021/12/31 08:44:15;;;;;;;20.90;19.40;;;9.90;94.10;;;;;;5031852;28;20987;-73
2021/12/31 08:46:43;;;;;;;22.93;21.00;;;10.00;94.20;;;;;;5032179;28;20949;-73
2021/12/31 08:49:10;;;;;;;20.90;19.40;;;10.10;93.90;;;;;;5031917;28;20995;-73
2021/12/31 08:51:37;;;;;;;20.80;19.50;;;10.20;93.90;;;;;;5035496;28;20486;-73
2021/12/31 08:54:04;;;;;;;19.70;18.20;;;10.30;93.70;;;;;;5036114;28;20534;-73
2021/12/31 08:56:33;;;;;;;20.97;19.63;;;10.40;93.60;;;;;;5035915;28;20451;-73
2021/12/31 08:58:59;;;;;;;17.30;16.20;;;10.60;93.60;;;;;;5035974;28;20476;-73
2021/12/31 09:01:26;;;;;;;20.80;19.50;;;10.70;93.40;;;;;;5035712;28;20475;-73
2021/12/31 09:03:54;;;;;;;19.63;18.40;;;10.70;93.20;;;;;;5035733;28;20538;-73
2021/12/31 09:06:21;;;;;;;21.70;20.40;;;10.80;93.10;;;;;;5035834;28;20452;-73
2021/12/31 09:08:49;;;;;;;20.53;19.33;;;10.80;93.30;;;;;;5035566;28;20476;-73
2021/12/31 09:11:16;;;;;;;20.60;19.40;;;10.90;93.30;;;;;;5035682;28;20447;-73
2021/12/31 09:13:46;;;;;;;19.97;18.77;;;11.10;93.30;;;;;;5035569;28;20451;-73
2021/12/31 09:16:13;;;;;;;19.57;18.37;;;11.30;92.70;;;;;;5035672;28;20475;-74
2021/12/31 09:18:40;;;;;;;18.80;17.60;;;11.40;92.20;;;;;;5035522;28;21001;-74
2021/12/31 09:21:07;;;;;;;22.20;20.30;;;11.60;92.00;;;;;;5035438;28;20522;-74
2021/12/31 09:23:34;;;;;;;20.00;18.80;;;11.60;91.80;;;;;;5035705;28;20809;-74
2021/12/31 09:26:01;;;;;;;20.80;19.50;;;11.60;92.10;;;;;;5035391;28;20452;-74
2021/12/31 09:28:28;;;;;;;19.40;18.00;;;11.70;91.80;;;;;;5035238;28;20462;-74
2021/12/31 09:31:00;;;;;;;15.10;13.90;;;11.80;91.60;;;;;;5035207;28;20452;-73
2021/12/31 09:33:28;;;;;;;22.73;21.23;;;11.90;91.50;;;;;;5035389;28;20448;-74
2021/12/31 09:35:55;;;;;;;20.67;19.33;;;12.00;91.50;;;;;;5035183;28;20456;-74
2021/12/31 09:38:22;;;;;;;20.13;18.83;;;12.10;91.00;;;;;;5035056;28;20448;-74
2021/12/31 09:40:49;;;;;;;20.73;19.53;;;12.20;90.30;;;;;;5034714;28;20475;-74
2021/12/31 09:43:16;;;;;;;19.80;18.60;;;12.20;90.30;;;;;;5034867;28;20543;-73
2021/12/31 09:45:47;;;;;;;21.73;20.43;;;12.30;90.20;;;;;;5035077;28;20820;-73
2021/12/31 09:48:18;;;;;;;20.50;19.20;;;12.30;90.10;;;;;;5034752;28;20470;-73
2021/12/31 09:50:47;;;;;;;22.00;20.50;;;12.30;90.00;;;;;;5034824;28;20456;-73
2021/12/31 09:53:16;;;;;;;22.47;21.07;;;12.40;90.00;;;;;;5034861;28;20494;-73
2021/12/31 09:55:45;;;;;;;21.70;20.20;;;12.40;89.80;;;;;;5034800;28;20454;-73
2021/12/31 09:58:14;;;;;;;20.33;19.13;;;12.50;89.30;;;;;;5034723;28;20462;-73
2021/12/31 10:00:44;;;;;;;21.13;19.83;;;12.50;89.10;;;;;;5034409;28;21051;-73
2021/12/31 10:03:13;;;;;;;18.63;17.60;;;12.50;89.20;;;;;;5033880;28;20456;-73
2021/12/31 10:05:42;;;;;;;20.57;19.27;;;12.50;89.10;;;;;;5034712;28;20889;-73
2021/12/31 10:08:17;;;;;;;21.57;20.17;;;12.60;88.70;;;;;;5034635;28;20830;-73
2021/12/31 10:10:44;;;;;;;21.43;20.13;;;12.70;88.80;;;;;;5034926;28;20447;-73
2021/12/31 10:13:11;;;;;;;20.50;19.30;;;12.70;88.30;;;;;;5035299;28;20456;-73
2021/12/31 10:15:40;;;;;;;21.90;20.70;;;12.70;88.40;;;;;;5034763;28;20934;-73
2021/12/31 10:18:12;;;;;;;20.47;19.37;;;12.70;88.60;;;;;;5034402;28;20451;-73
2021/12/31 10:20:52;;;;;;;20.60;19.40;;;12.80;88.50;;;;;;5033930;28;21000;-73
2021/12/31 10:23:20;;;;;;;21.37;20.07;;;12.80;88.10;;;;;;5034386;28;20452;-73
2021/12/31 10:25:48;;;;;;;21.03;19.83;;;12.90;88.10;;;;;;5034248;28;20988;-73
2021/12/31 10:28:17;;;;;;;20.83;19.67;;;12.90;87.90;;;;;;5033991;28;20551;-73
2021/12/31 10:30:44;;;;;;;20.70;19.50;;;13.00;87.50;;;;;;5033914;28;20452;-73
2021/12/31 10:33:12;;;;;;;22.37;21.17;;;13.10;87.40;;;;;;5034130;28;20983;-73
2021/12/31 10:35:41;;;;;;;20.57;19.37;;;13.10;86.70;;;;;;5033924;28;20451;-73
2021/12/31 10:38:11;;;;;;;21.30;20.10;;;13.10;87.20;;;;;;5033901;28;20510;-73
2021/12/31 10:40:41;;;;;;;21.33;20.13;;;13.20;87.20;;;;;;5033561;28;20491;-73
2021/12/31 10:43:15;;;;;;;22.47;20.97;;;13.10;87.20;;;;;;5033588;28;20964;-73
2021/12/31 10:45:58;;;;;;;22.67;21.17;;;13.20;86.90;;;;;;5033789;28;20508;-73
2021/12/31 10:48:39;;;;;;;21.03;19.73;;;13.40;86.30;;;;;;5033484;28;20443;-73
2021/12/31 10:51:09;;;;;;;20.83;19.53;;;13.30;87.30;;;;;;5033647;28;20535;-73
2021/12/31 10:53:37;;;;;;;20.40;19.30;;;13.20;87.40;;;;;;5033597;28;20944;-73
2021/12/31 10:56:10;;;;;;;20.67;19.47;;;13.30;87.70;;;;;;5033622;28;20505;-73
2021/12/31 10:58:39;;;;;;;21.80;20.50;;;13.40;87.30;;;;;;5033500;28;20452;-73
2021/12/31 11:01:08;;;;;;;21.80;20.50;;;13.40;86.40;;;;;;5033429;28;20579;-73
2021/12/31 11:03:35;;;;;;;21.47;20.27;;;13.50;86.30;;;;;;5033362;28;20483;-73
2021/12/31 11:06:03;;;;;;;21.03;19.83;;;13.50;85.90;;;;;;5033423;28;20459;-73
2021/12/31 11:08:32;;;;;;;22.33;21.03;;;13.60;85.60;;;;;;5033302;28;20452;-73
2021/12/31 11:11:02;;;;;;;21.07;19.90;;;13.70;85.20;;;;;;5033231;28;20448;-73
2021/12/31 11:13:30;;;;;;;21.97;20.63;;;13.70;84.90;;;;;;5032328;28;20463;-73
2021/12/31 11:15:59;;;;;;;22.10;20.80;;;13.80;84.50;;;;;;5033110;28;20860;-73
2021/12/31 11:18:26;;;;;;;20.60;19.60;;;13.80;84.40;;;;;;5033008;28;21014;-73
2021/12/31 11:20:54;;;;;;;22.57;21.20;;;13.90;84.40;;;;;;5032940;28;20479;-73
2021/12/31 11:23:25;;;;;;;22.90;21.50;;;13.90;84.20;;;;;;5033242;28;20539;-73
2021/12/31 11:25:54;;;;;;;21.70;20.30;;;14.00;84.10;;;;;;5033242;28;20503;-73
2021/12/31 11:28:31;;;;;;;20.47;19.27;;;14.00;83.90;;;;;;5032973;28;20534;-73
2021/12/31 11:31:22;;;;;;;21.83;20.63;;;14.00;83.80;;;;;;5032720;28;21024;-73
2021/12/31 11:34:13;;;;;;;21.30;20.10;;;14.20;83.50;;;;;;5032920;28;20452;-73
2021/12/31 11:36:51;;;;;;;20.40;19.30;;;14.20;83.20;;;;;;5032871;28;20817;-73
2021/12/31 11:39:25;;;;;;;21.37;19.87;;;14.20;83.50;;;;;;5032539;28;21064;-73
2021/12/31 11:41:53;;;;;;;20.33;19.20;;;14.30;82.90;;;;;;5032802;28;20487;-73
2021/12/31 11:44:24;;;;;;;20.10;19.00;;;14.30;82.40;;;;;;5032598;28;20468;-73
2021/12/31 11:46:51;;;;;;;21.53;20.33;;;14.40;82.10;;;;;;5032871;28;20452;-73
2021/12/31 11:49:22;;;;;;;21.30;20.20;;;14.50;81.70;;;;;;5033051;28;20476;-73
2021/12/31 11:52:01;;;;;;;20.23;19.13;;;14.50;82.20;;;;;;5033127;28;20463;-73
2021/12/31 11:54:29;;;;;;;21.00;19.83;;;14.50;81.90;;;;;;5032937;28;20539;-73
2021/12/31 11:57:10;;;;;;;21.07;19.97;;;14.70;81.30;;;;;;5032734;28;20452;-73
2021/12/31 11:59:50;;;;;;;23.30;21.90;;;14.70;81.20;;;;;;5032473;28;20474;-73
2021/12/31 12:02:36;;;;;;;21.60;20.40;;;15.00;80.60;;;;;;5032502;28;20479;-73
2021/12/31 12:05:15;;;;;;;22.70;21.40;;;15.00;80.40;;;;;;5032548;28;20452;-73
2021/12/31 12:07:46;;;;;;;21.10;20.00;;;15.10;80.40;;;;;;5032519;28;20491;-74
2021/12/31 12:10:25;;;;;;;20.93;19.83;;;15.20;79.70;;;;;;5032305;28;20468;-73
2021/12/31 12:12:53;;;;;;;21.00;19.90;;;15.30;79.50;;;;;;5032539;28;20791;-74
2021/12/31 12:15:29;;;;;;;21.50;20.40;;;15.30;79.30;;;;;;5032442;28;21027;-73
2021/12/31 12:17:56;;;;;;;20.60;19.50;;;15.30;79.70;;;;;;5032513;28;20477;-74
2021/12/31 12:20:36;;;;;;;21.20;20.00;;;15.40;79.20;;;;;;5032112;28;20512;-74
2021/12/31 12:23:02;;;;;;;20.77;19.73;;;15.30;79.20;;;;;;5032244;28;20454;-74
2021/12/31 12:25:31;;;;;;;21.30;20.20;;;15.40;79.20;;;;;;5034128;28;20817;-73
2021/12/31 12:28:06;;;;;;;21.90;20.70;;;15.50;79.00;;;;;;5036308;28;20486;-74
2021/12/31 12:30:35;;;;;;;21.07;19.97;;;15.50;78.90;;;;;;5036145;28;20506;-74
2021/12/31 12:33:15;;;;;;;21.40;20.20;;;15.60;78.70;;;;;;5036466;28;20534;-73
2021/12/31 12:35:44;;;;;;;21.27;20.07;;;15.70;78.50;;;;;;5036379;28;20451;-73
2021/12/31 12:38:16;;;;;;;21.77;20.67;;;15.70;77.40;;;;;;5036107;28;20510;-74